sensor_id;sensor_type;location;lat;lon;timestamp;P1;durP1;ratioP1;P2;durP2;ratioP2
19253;SDS011;9761;50.926;5.330;2022-10-01T00:01:15;7.43;;;5.00;;
19253;SDS011;9761;50.926;5.330;2022-10-01T00:03:44;5.57;;;4.00;;
19253;SDS011;9761;50.926;5.330;2022-10-01T00:06:13;4.80;;;4.33;;
19253;SDS011;9761;50.926;5.330;2022-10-01T00:08:44;5.80;;;4.77;;
19253;SDS011;9761;50.926;5.330;2022-10-01T00:11:13;6.53;;;5.00;;
19253;SDS011;9761;50.926;5.330;2022-10-01T00:13:43;4.67;;;4.20;;
19253;SDS011;9761;50.926;5.330;2022-10-01T00:16:19;5.93;;;4.73;;
19253;SDS011;9761;50.926;5.330;2022-10-01T00:18:53;5.70;;;4.67;;
19253;SDS011;9761;50.926;5.330;2022-10-01T00:21:26;6.40;;;4.93;;
19253;SDS011;9761;50.926;5.330;2022-10-01T00:23:58;8.60;;;4.63;;
19253;SDS011;9761;50.926;5.330;2022-10-01T00:26:30;7.60;;;4.67;;
19253;SDS011;9761;50.926;5.330;2022-10-01T00:29:00;5.53;;;4.30;;
19253;SDS011;9761;50.926;5.330;2022-10-01T00:31:29;6.20;;;5.17;;
19253;SDS011;9761;50.926;5.330;2022-10-01T00:34:00;5.87;;;5.03;;
19253;SDS011;9761;50.926;5.330;2022-10-01T00:36:29;5.10;;;4.60;;
19253;SDS011;9761;50.926;5.330;2022-10-01T00:38:58;7.40;;;4.63;;
19253;SDS011;9761;50.926;5.330;2022-10-01T00:41:28;5.63;;;5.00;;
19253;SDS011;9761;50.926;5.330;2022-10-01T00:43:56;7.13;;;5.47;;
19253;SDS011;9761;50.926;5.330;2022-10-01T00:46:26;5.90;;;5.40;;
19253;SDS011;9761;50.926;5.330;2022-10-01T00:48:58;5.33;;;4.47;;
19253;SDS011;9761;50.926;5.330;2022-10-01T00:51:28;5.63;;;5.13;;
19253;SDS011;9761;50.926;5.330;2022-10-01T00:54:00;5.90;;;5.23;;
19253;SDS011;9761;50.926;5.330;2022-10-01T00:56:35;6.30;;;5.37;;
19253;SDS011;9761;50.926;5.330;2022-10-01T00:59:06;5.93;;;5.33;;
19253;SDS011;9761;50.926;5.330;2022-10-01T01:01:34;5.53;;;5.03;;
19253;SDS011;9761;50.926;5.330;2022-10-01T01:04:06;6.80;;;5.70;;
19253;SDS011;9761;50.926;5.330;2022-10-01T01:06:40;6.07;;;5.47;;
19253;SDS011;9761;50.926;5.330;2022-10-01T01:09:12;5.43;;;4.80;;
19253;SDS011;9761;50.926;5.330;2022-10-01T01:11:42;5.70;;;5.20;;
19253;SDS011;9761;50.926;5.330;2022-10-01T01:14:15;4.83;;;4.40;;
19253;SDS011;9761;50.926;5.330;2022-10-01T01:16:50;5.10;;;4.60;;
19253;SDS011;9761;50.926;5.330;2022-10-01T01:19:26;5.17;;;4.77;;
19253;SDS011;9761;50.926;5.330;2022-10-01T01:22:04;5.80;;;4.53;;
19253;SDS011;9761;50.926;5.330;2022-10-01T01:24:40;4.70;;;4.30;;
19253;SDS011;9761;50.926;5.330;2022-10-01T01:27:21;3.97;;;3.57;;
19253;SDS011;9761;50.926;5.330;2022-10-01T01:30:02;5.10;;;4.17;;
19253;SDS011;9761;50.926;5.330;2022-10-01T01:32:37;5.97;;;4.43;;
19253;SDS011;9761;50.926;5.330;2022-10-01T01:35:13;4.17;;;3.77;;
19253;SDS011;9761;50.926;5.330;2022-10-01T01:37:48;5.63;;;3.60;;
19253;SDS011;9761;50.926;5.330;2022-10-01T01:40:23;5.00;;;3.37;;
19253;SDS011;9761;50.926;5.330;2022-10-01T01:42:51;4.10;;;3.67;;
19253;SDS011;9761;50.926;5.330;2022-10-01T01:45:21;3.80;;;3.47;;
19253;SDS011;9761;50.926;5.330;2022-10-01T01:47:52;5.00;;;3.53;;
19253;SDS011;9761;50.926;5.330;2022-10-01T01:50:26;4.87;;;3.43;;
19253;SDS011;9761;50.926;5.330;2022-10-01T01:52:59;4.30;;;2.93;;
19253;SDS011;9761;50.926;5.330;2022-10-01T01:55:27;3.53;;;3.20;;
19253;SDS011;9761;50.926;5.330;2022-10-01T01:57:56;4.33;;;3.20;;
19253;SDS011;9761;50.926;5.330;2022-10-01T02:00:25;3.40;;;3.10;;
19253;SDS011;9761;50.926;5.330;2022-10-01T02:02:52;3.23;;;2.57;;
19253;SDS011;9761;50.926;5.330;2022-10-01T02:05:23;3.33;;;2.93;;
19253;SDS011;9761;50.926;5.330;2022-10-01T02:08:09;2.90;;;2.53;;
19253;SDS011;9761;50.926;5.330;2022-10-01T02:11:09;2.57;;;2.23;;
19253;SDS011;9761;50.926;5.330;2022-10-01T02:13:48;2.70;;;2.50;;
19253;SDS011;9761;50.926;5.330;2022-10-01T02:16:29;3.20;;;2.40;;
19253;SDS011;9761;50.926;5.330;2022-10-01T02:19:11;2.30;;;2.10;;
19253;SDS011;9761;50.926;5.330;2022-10-01T02:21:50;3.33;;;2.00;;
19253;SDS011;9761;50.926;5.330;2022-10-01T02:24:25;2.00;;;1.80;;
19253;SDS011;9761;50.926;5.330;2022-10-01T02:27:05;2.30;;;2.00;;
19253;SDS011;9761;50.926;5.330;2022-10-01T02:29:41;2.03;;;1.93;;
19253;SDS011;9761;50.926;5.330;2022-10-01T02:32:16;1.90;;;1.70;;
19253;SDS011;9761;50.926;5.330;2022-10-01T02:34:46;1.67;;;1.57;;
19253;SDS011;9761;50.926;5.330;2022-10-01T02:37:16;2.83;;;1.60;;
19253;SDS011;9761;50.926;5.330;2022-10-01T02:39:47;1.43;;;1.33;;
19253;SDS011;9761;50.926;5.330;2022-10-01T02:42:20;3.70;;;1.53;;
19253;SDS011;9761;50.926;5.330;2022-10-01T02:44:52;1.60;;;1.40;;
19253;SDS011;9761;50.926;5.330;2022-10-01T02:47:25;1.30;;;1.20;;
19253;SDS011;9761;50.926;5.330;2022-10-01T02:49:58;1.73;;;1.10;;
19253;SDS011;9761;50.926;5.330;2022-10-01T02:52:27;2.77;;;1.07;;
19253;SDS011;9761;50.926;5.330;2022-10-01T02:55:04;1.63;;;1.03;;
19253;SDS011;9761;50.926;5.330;2022-10-01T02:57:37;4.30;;;1.20;;
19253;SDS011;9761;50.926;5.330;2022-10-01T03:00:07;1.73;;;1.00;;
19253;SDS011;9761;50.926;5.330;2022-10-01T03:02:37;1.73;;;1.10;;
19253;SDS011;9761;50.926;5.330;2022-10-01T03:05:06;1.00;;;0.90;;
19253;SDS011;9761;50.926;5.330;2022-10-01T03:07:37;1.23;;;0.87;;
19253;SDS011;9761;50.926;5.330;2022-10-01T03:10:05;1.00;;;0.90;;
19253;SDS011;9761;50.926;5.330;2022-10-01T03:12:33;1.37;;;0.90;;
19253;SDS011;9761;50.926;5.330;2022-10-01T03:15:01;2.63;;;0.90;;
19253;SDS011;9761;50.926;5.330;2022-10-01T03:17:30;3.67;;;1.23;;
19253;SDS011;9761;50.926;5.330;2022-10-01T03:20:03;2.60;;;0.90;;
19253;SDS011;9761;50.926;5.330;2022-10-01T03:22:31;1.10;;;0.80;;
19253;SDS011;9761;50.926;5.330;2022-10-01T03:24:59;0.87;;;0.87;;
19253;SDS011;9761;50.926;5.330;2022-10-01T03:27:28;2.07;;;0.97;;
19253;SDS011;9761;50.926;5.330;2022-10-01T03:29:56;2.43;;;0.70;;
19253;SDS011;9761;50.926;5.330;2022-10-01T03:32:23;1.10;;;0.70;;
19253;SDS011;9761;50.926;5.330;2022-10-01T03:34:50;0.73;;;0.70;;
19253;SDS011;9761;50.926;5.330;2022-10-01T03:37:19;1.20;;;0.77;;
19253;SDS011;9761;50.926;5.330;2022-10-01T03:39:46;2.17;;;0.70;;
19253;SDS011;9761;50.926;5.330;2022-10-01T03:42:14;1.10;;;0.80;;
19253;SDS011;9761;50.926;5.330;2022-10-01T03:44:42;0.73;;;0.60;;
19253;SDS011;9761;50.926;5.330;2022-10-01T03:47:12;0.80;;;0.70;;
19253;SDS011;9761;50.926;5.330;2022-10-01T03:49:40;0.50;;;0.50;;
19253;SDS011;9761;50.926;5.330;2022-10-01T03:52:08;1.30;;;0.60;;
19253;SDS011;9761;50.926;5.330;2022-10-01T03:54:38;0.70;;;0.50;;
19253;SDS011;9761;50.926;5.330;2022-10-01T03:57:06;1.43;;;0.73;;
19253;SDS011;9761;50.926;5.330;2022-10-01T03:59:33;1.17;;;0.67;;
19253;SDS011;9761;50.926;5.330;2022-10-01T04:02:00;1.43;;;0.63;;
19253;SDS011;9761;50.926;5.330;2022-10-01T04:04:28;0.60;;;0.60;;
19253;SDS011;9761;50.926;5.330;2022-10-01T04:06:55;1.77;;;0.50;;
19253;SDS011;9761;50.926;5.330;2022-10-01T04:09:22;1.10;;;0.63;;
19253;SDS011;9761;50.926;5.330;2022-10-01T04:11:50;1.53;;;0.70;;
19253;SDS011;9761;50.926;5.330;2022-10-01T04:14:18;0.67;;;0.60;;
19253;SDS011;9761;50.926;5.330;2022-10-01T04:16:45;0.70;;;0.70;;
19253;SDS011;9761;50.926;5.330;2022-10-01T04:19:20;0.83;;;0.60;;
19253;SDS011;9761;50.926;5.330;2022-10-01T04:21:46;1.23;;;0.70;;
19253;SDS011;9761;50.926;5.330;2022-10-01T04:24:14;0.70;;;0.70;;
19253;SDS011;9761;50.926;5.330;2022-10-01T04:26:41;1.57;;;0.80;;
19253;SDS011;9761;50.926;5.330;2022-10-01T04:29:09;1.90;;;0.57;;
19253;SDS011;9761;50.926;5.330;2022-10-01T04:31:38;0.80;;;0.60;;
19253;SDS011;9761;50.926;5.330;2022-10-01T04:34:06;1.00;;;0.60;;
19253;SDS011;9761;50.926;5.330;2022-10-01T04:36:35;0.80;;;0.60;;
19253;SDS011;9761;50.926;5.330;2022-10-01T04:39:02;0.77;;;0.60;;
19253;SDS011;9761;50.926;5.330;2022-10-01T04:41:29;1.13;;;0.60;;
19253;SDS011;9761;50.926;5.330;2022-10-01T04:43:58;2.20;;;0.60;;
19253;SDS011;9761;50.926;5.330;2022-10-01T04:46:26;2.50;;;0.50;;
19253;SDS011;9761;50.926;5.330;2022-10-01T04:48:56;0.50;;;0.50;;
19253;SDS011;9761;50.926;5.330;2022-10-01T04:51:24;0.77;;;0.60;;
19253;SDS011;9761;50.926;5.330;2022-10-01T04:53:52;2.67;;;0.50;;
19253;SDS011;9761;50.926;5.330;2022-10-01T04:56:19;0.60;;;0.50;;
19253;SDS011;9761;50.926;5.330;2022-10-01T04:58:46;0.50;;;0.40;;
19253;SDS011;9761;50.926;5.330;2022-10-01T05:01:13;0.60;;;0.47;;
19253;SDS011;9761;50.926;5.330;2022-10-01T05:03:43;0.60;;;0.53;;
19253;SDS011;9761;50.926;5.330;2022-10-01T05:06:12;0.40;;;0.40;;
19253;SDS011;9761;50.926;5.330;2022-10-01T05:08:39;1.03;;;0.63;;
19253;SDS011;9761;50.926;5.330;2022-10-01T05:11:06;0.40;;;0.40;;
19253;SDS011;9761;50.926;5.330;2022-10-01T05:13:37;1.77;;;0.50;;
19253;SDS011;9761;50.926;5.330;2022-10-01T05:16:04;0.57;;;0.47;;
19253;SDS011;9761;50.926;5.330;2022-10-01T05:18:31;1.27;;;0.50;;
19253;SDS011;9761;50.926;5.330;2022-10-01T05:21:04;1.70;;;0.40;;
19253;SDS011;9761;50.926;5.330;2022-10-01T05:23:33;0.50;;;0.50;;
19253;SDS011;9761;50.926;5.330;2022-10-01T05:26:00;3.37;;;0.40;;
19253;SDS011;9761;50.926;5.330;2022-10-01T05:28:29;2.73;;;0.33;;
19253;SDS011;9761;50.926;5.330;2022-10-01T05:30:57;0.60;;;0.40;;
19253;SDS011;9761;50.926;5.330;2022-10-01T05:33:25;0.50;;;0.30;;
19253;SDS011;9761;50.926;5.330;2022-10-01T05:35:54;0.83;;;0.40;;
19253;SDS011;9761;50.926;5.330;2022-10-01T05:38:22;0.60;;;0.30;;
19253;SDS011;9761;50.926;5.330;2022-10-01T05:40:50;3.07;;;0.40;;
19253;SDS011;9761;50.926;5.330;2022-10-01T05:43:17;0.90;;;0.40;;
19253;SDS011;9761;50.926;5.330;2022-10-01T05:45:47;0.73;;;0.50;;
19253;SDS011;9761;50.926;5.330;2022-10-01T05:48:16;1.57;;;0.40;;
19253;SDS011;9761;50.926;5.330;2022-10-01T05:50:44;0.57;;;0.40;;
19253;SDS011;9761;50.926;5.330;2022-10-01T05:53:15;0.60;;;0.30;;
19253;SDS011;9761;50.926;5.330;2022-10-01T05:55:45;0.80;;;0.33;;
19253;SDS011;9761;50.926;5.330;2022-10-01T05:58:14;0.47;;;0.47;;
19253;SDS011;9761;50.926;5.330;2022-10-01T06:00:42;1.97;;;0.50;;
19253;SDS011;9761;50.926;5.330;2022-10-01T06:03:11;1.00;;;0.50;;
19253;SDS011;9761;50.926;5.330;2022-10-01T06:05:39;0.90;;;0.50;;
19253;SDS011;9761;50.926;5.330;2022-10-01T06:08:07;0.43;;;0.40;;
19253;SDS011;9761;50.926;5.330;2022-10-01T06:10:34;2.63;;;0.60;;
19253;SDS011;9761;50.926;5.330;2022-10-01T06:13:03;0.80;;;0.50;;
19253;SDS011;9761;50.926;5.330;2022-10-01T06:15:31;0.60;;;0.50;;
19253;SDS011;9761;50.926;5.330;2022-10-01T06:18:01;0.50;;;0.50;;
19253;SDS011;9761;50.926;5.330;2022-10-01T06:20:33;0.77;;;0.60;;
19253;SDS011;9761;50.926;5.330;2022-10-01T06:23:07;3.17;;;1.13;;
19253;SDS011;9761;50.926;5.330;2022-10-01T06:25:36;1.20;;;0.67;;
19253;SDS011;9761;50.926;5.330;2022-10-01T06:28:06;2.10;;;0.60;;
19253;SDS011;9761;50.926;5.330;2022-10-01T06:30:39;2.10;;;0.70;;
19253;SDS011;9761;50.926;5.330;2022-10-01T06:33:09;1.03;;;0.70;;
19253;SDS011;9761;50.926;5.330;2022-10-01T06:35:40;0.70;;;0.67;;
19253;SDS011;9761;50.926;5.330;2022-10-01T06:38:11;2.50;;;1.37;;
19253;SDS011;9761;50.926;5.330;2022-10-01T06:40:41;1.10;;;0.70;;
19253;SDS011;9761;50.926;5.330;2022-10-01T06:43:10;2.50;;;0.80;;
19253;SDS011;9761;50.926;5.330;2022-10-01T06:45:37;1.37;;;0.63;;
19253;SDS011;9761;50.926;5.330;2022-10-01T06:48:09;0.60;;;0.60;;
19253;SDS011;9761;50.926;5.330;2022-10-01T06:50:38;1.90;;;0.77;;
19253;SDS011;9761;50.926;5.330;2022-10-01T06:53:07;3.97;;;0.93;;
19253;SDS011;9761;50.926;5.330;2022-10-01T06:55:34;0.90;;;0.80;;
19253;SDS011;9761;50.926;5.330;2022-10-01T06:58:03;1.67;;;0.63;;
19253;SDS011;9761;50.926;5.330;2022-10-01T07:00:35;1.97;;;0.93;;
19253;SDS011;9761;50.926;5.330;2022-10-01T07:03:03;3.87;;;0.90;;
19253;SDS011;9761;50.926;5.330;2022-10-01T07:05:36;1.20;;;0.80;;
19253;SDS011;9761;50.926;5.330;2022-10-01T07:08:04;1.53;;;1.00;;
19253;SDS011;9761;50.926;5.330;2022-10-01T07:10:32;0.57;;;0.57;;
19253;SDS011;9761;50.926;5.330;2022-10-01T07:13:06;1.50;;;0.90;;
19253;SDS011;9761;50.926;5.330;2022-10-01T07:15:36;1.87;;;1.33;;
19253;SDS011;9761;50.926;5.330;2022-10-01T07:18:07;1.80;;;0.83;;
19253;SDS011;9761;50.926;5.330;2022-10-01T07:20:34;1.97;;;1.03;;
19253;SDS011;9761;50.926;5.330;2022-10-01T07:23:06;3.50;;;0.87;;
19253;SDS011;9761;50.926;5.330;2022-10-01T07:25:36;1.47;;;0.97;;
19253;SDS011;9761;50.926;5.330;2022-10-01T07:28:09;1.80;;;1.00;;
19253;SDS011;9761;50.926;5.330;2022-10-01T07:30:43;3.13;;;1.30;;
19253;SDS011;9761;50.926;5.330;2022-10-01T07:33:21;2.97;;;1.30;;
19253;SDS011;9761;50.926;5.330;2022-10-01T07:35:48;3.90;;;1.60;;
19253;SDS011;9761;50.926;5.330;2022-10-01T07:38:16;2.63;;;1.50;;
19253;SDS011;9761;50.926;5.330;2022-10-01T07:40:49;2.67;;;1.53;;
19253;SDS011;9761;50.926;5.330;2022-10-01T07:43:16;3.43;;;1.77;;
19253;SDS011;9761;50.926;5.330;2022-10-01T07:45:45;4.83;;;1.50;;
19253;SDS011;9761;50.926;5.330;2022-10-01T07:48:15;4.73;;;1.50;;
19253;SDS011;9761;50.926;5.330;2022-10-01T07:50:44;2.27;;;1.33;;
19253;SDS011;9761;50.926;5.330;2022-10-01T07:53:11;4.20;;;1.60;;
19253;SDS011;9761;50.926;5.330;2022-10-01T07:55:38;4.10;;;1.90;;
19253;SDS011;9761;50.926;5.330;2022-10-01T07:58:08;4.93;;;1.90;;
19253;SDS011;9761;50.926;5.330;2022-10-01T08:00:37;5.13;;;2.43;;
19253;SDS011;9761;50.926;5.330;2022-10-01T08:03:07;3.77;;;1.70;;
19253;SDS011;9761;50.926;5.330;2022-10-01T08:05:39;3.97;;;2.07;;
19253;SDS011;9761;50.926;5.330;2022-10-01T08:08:08;3.27;;;1.73;;
19253;SDS011;9761;50.926;5.330;2022-10-01T08:10:36;2.67;;;1.60;;
19253;SDS011;9761;50.926;5.330;2022-10-01T08:13:11;2.97;;;2.00;;
19253;SDS011;9761;50.926;5.330;2022-10-01T08:15:44;5.20;;;2.67;;
19253;SDS011;9761;50.926;5.330;2022-10-01T08:18:15;4.30;;;2.60;;
19253;SDS011;9761;50.926;5.330;2022-10-01T08:20:43;4.40;;;2.97;;
19253;SDS011;9761;50.926;5.330;2022-10-01T08:23:14;8.60;;;3.40;;
19253;SDS011;9761;50.926;5.330;2022-10-01T08:25:43;6.40;;;3.60;;
19253;SDS011;9761;50.926;5.330;2022-10-01T08:28:13;7.50;;;3.50;;
19253;SDS011;9761;50.926;5.330;2022-10-01T08:30:40;7.03;;;3.57;;
19253;SDS011;9761;50.926;5.330;2022-10-01T08:33:09;9.77;;;4.20;;
19253;SDS011;9761;50.926;5.330;2022-10-01T08:35:41;7.50;;;4.10;;
19253;SDS011;9761;50.926;5.330;2022-10-01T08:38:09;9.50;;;4.27;;
19253;SDS011;9761;50.926;5.330;2022-10-01T08:40:40;5.97;;;3.73;;
19253;SDS011;9761;50.926;5.330;2022-10-01T08:43:12;8.30;;;3.80;;
19253;SDS011;9761;50.926;5.330;2022-10-01T08:45:53;6.57;;;3.30;;
19253;SDS011;9761;50.926;5.330;2022-10-01T08:48:27;13.43;;;4.53;;
19253;SDS011;9761;50.926;5.330;2022-10-01T08:51:04;8.83;;;4.03;;
19253;SDS011;9761;50.926;5.330;2022-10-01T08:53:38;9.03;;;3.93;;
19253;SDS011;9761;50.926;5.330;2022-10-01T08:56:17;9.40;;;4.70;;
19253;SDS011;9761;50.926;5.330;2022-10-01T08:58:52;11.80;;;4.00;;
19253;SDS011;9761;50.926;5.330;2022-10-01T09:01:24;8.80;;;3.67;;
19253;SDS011;9761;50.926;5.330;2022-10-01T09:03:54;9.77;;;4.03;;
19253;SDS011;9761;50.926;5.330;2022-10-01T09:06:27;12.17;;;3.33;;
19253;SDS011;9761;50.926;5.330;2022-10-01T09:09:02;10.17;;;3.60;;
19253;SDS011;9761;50.926;5.330;2022-10-01T09:11:43;9.27;;;3.17;;
19253;SDS011;9761;50.926;5.330;2022-10-01T09:14:31;10.87;;;4.13;;
19253;SDS011;9761;50.926;5.330;2022-10-01T09:17:16;8.33;;;3.23;;
19253;SDS011;9761;50.926;5.330;2022-10-01T09:20:00;7.80;;;3.47;;
19253;SDS011;9761;50.926;5.330;2022-10-01T09:22:40;9.60;;;2.83;;
19253;SDS011;9761;50.926;5.330;2022-10-01T09:25:18;9.97;;;3.27;;
19253;SDS011;9761;50.926;5.330;2022-10-01T09:27:56;14.13;;;3.50;;
19253;SDS011;9761;50.926;5.330;2022-10-01T09:30:27;10.00;;;4.17;;
19253;SDS011;9761;50.926;5.330;2022-10-01T09:32:59;12.17;;;4.17;;
19253;SDS011;9761;50.926;5.330;2022-10-01T09:35:34;7.97;;;3.47;;
19253;SDS011;9761;50.926;5.330;2022-10-01T09:38:12;6.47;;;3.40;;
19253;SDS011;9761;50.926;5.330;2022-10-01T09:40:45;12.37;;;3.47;;
19253;SDS011;9761;50.926;5.330;2022-10-01T09:43:19;10.87;;;3.40;;
19253;SDS011;9761;50.926;5.330;2022-10-01T09:45:51;8.20;;;3.10;;
19253;SDS011;9761;50.926;5.330;2022-10-01T09:48:23;12.37;;;3.70;;
19253;SDS011;9761;50.926;5.330;2022-10-01T09:51:00;8.37;;;3.40;;
19253;SDS011;9761;50.926;5.330;2022-10-01T09:53:42;9.43;;;4.07;;
19253;SDS011;9761;50.926;5.330;2022-10-01T09:56:18;7.93;;;3.00;;
19253;SDS011;9761;50.926;5.330;2022-10-01T09:58:52;7.87;;;3.47;;
19253;SDS011;9761;50.926;5.330;2022-10-01T10:01:30;8.47;;;3.40;;
19253;SDS011;9761;50.926;5.330;2022-10-01T10:04:08;11.60;;;3.90;;
19253;SDS011;9761;50.926;5.330;2022-10-01T10:06:38;10.67;;;3.77;;
19253;SDS011;9761;50.926;5.330;2022-10-01T10:09:13;10.03;;;3.37;;
19253;SDS011;9761;50.926;5.330;2022-10-01T10:11:47;8.33;;;3.30;;
19253;SDS011;9761;50.926;5.330;2022-10-01T10:14:16;11.17;;;3.77;;
19253;SDS011;9761;50.926;5.330;2022-10-01T10:16:53;7.33;;;3.50;;
19253;SDS011;9761;50.926;5.330;2022-10-01T10:19:23;10.30;;;3.63;;
19253;SDS011;9761;50.926;5.330;2022-10-01T10:21:56;11.17;;;3.10;;
19253;SDS011;9761;50.926;5.330;2022-10-01T10:24:40;10.30;;;3.17;;
19253;SDS011;9761;50.926;5.330;2022-10-01T10:27:19;12.27;;;3.60;;
19253;SDS011;9761;50.926;5.330;2022-10-01T10:30:00;9.70;;;3.30;;
19253;SDS011;9761;50.926;5.330;2022-10-01T10:32:34;10.27;;;3.40;;
19253;SDS011;9761;50.926;5.330;2022-10-01T10:35:07;8.63;;;3.20;;
19253;SDS011;9761;50.926;5.330;2022-10-01T10:37:43;10.83;;;3.40;;
19253;SDS011;9761;50.926;5.330;2022-10-01T10:40:17;9.53;;;3.60;;
19253;SDS011;9761;50.926;5.330;2022-10-01T10:42:54;8.30;;;3.30;;
19253;SDS011;9761;50.926;5.330;2022-10-01T10:45:25;7.70;;;3.03;;
19253;SDS011;9761;50.926;5.330;2022-10-01T10:47:57;7.47;;;2.17;;
19253;SDS011;9761;50.926;5.330;2022-10-01T10:50:29;9.93;;;3.23;;
19253;SDS011;9761;50.926;5.330;2022-10-01T10:53:10;10.60;;;3.17;;
19253;SDS011;9761;50.926;5.330;2022-10-01T10:55:55;12.47;;;3.80;;
19253;SDS011;9761;50.926;5.330;2022-10-01T10:58:26;9.47;;;3.57;;
19253;SDS011;9761;50.926;5.330;2022-10-01T11:00:58;8.03;;;3.13;;
19253;SDS011;9761;50.926;5.330;2022-10-01T11:03:30;10.87;;;2.90;;
19253;SDS011;9761;50.926;5.330;2022-10-01T11:06:02;8.60;;;3.60;;
19253;SDS011;9761;50.926;5.330;2022-10-01T11:08:40;13.57;;;3.33;;
19253;SDS011;9761;50.926;5.330;2022-10-01T11:11:16;7.47;;;3.10;;
19253;SDS011;9761;50.926;5.330;2022-10-01T11:14:01;6.80;;;2.80;;
19253;SDS011;9761;50.926;5.330;2022-10-01T11:16:44;11.63;;;3.63;;
19253;SDS011;9761;50.926;5.330;2022-10-01T11:19:32;11.67;;;3.53;;
19253;SDS011;9761;50.926;5.330;2022-10-01T11:22:15;9.93;;;3.23;;
19253;SDS011;9761;50.926;5.330;2022-10-01T11:25:07;9.63;;;3.40;;
19253;SDS011;9761;50.926;5.330;2022-10-01T11:27:47;22.13;;;3.40;;
19253;SDS011;9761;50.926;5.330;2022-10-01T11:30:22;11.30;;;3.30;;
19253;SDS011;9761;50.926;5.330;2022-10-01T11:32:57;11.93;;;3.07;;
19253;SDS011;9761;50.926;5.330;2022-10-01T11:35:40;10.63;;;3.33;;
19253;SDS011;9761;50.926;5.330;2022-10-01T11:38:26;9.67;;;3.30;;
19253;SDS011;9761;50.926;5.330;2022-10-01T11:41:07;8.37;;;3.20;;
19253;SDS011;9761;50.926;5.330;2022-10-01T11:43:47;7.87;;;2.73;;
19253;SDS011;9761;50.926;5.330;2022-10-01T11:46:23;8.60;;;3.20;;
19253;SDS011;9761;50.926;5.330;2022-10-01T11:49:02;5.93;;;2.60;;
19253;SDS011;9761;50.926;5.330;2022-10-01T11:51:47;7.80;;;3.17;;
19253;SDS011;9761;50.926;5.330;2022-10-01T11:54:29;7.57;;;2.40;;
19253;SDS011;9761;50.926;5.330;2022-10-01T11:57:01;6.40;;;2.80;;
19253;SDS011;9761;50.926;5.330;2022-10-01T12:00:00;12.43;;;3.10;;
19253;SDS011;9761;50.926;5.330;2022-10-01T12:02:33;8.60;;;3.07;;
19253;SDS011;9761;50.926;5.330;2022-10-01T12:05:09;7.07;;;2.83;;
19253;SDS011;9761;50.926;5.330;2022-10-01T12:07:43;7.70;;;3.00;;
19253;SDS011;9761;50.926;5.330;2022-10-01T12:10:20;12.10;;;3.17;;
19253;SDS011;9761;50.926;5.330;2022-10-01T12:13:06;7.67;;;3.00;;
19253;SDS011;9761;50.926;5.330;2022-10-01T12:15:51;8.93;;;2.70;;
19253;SDS011;9761;50.926;5.330;2022-10-01T12:18:27;9.53;;;3.50;;
19253;SDS011;9761;50.926;5.330;2022-10-01T12:20:59;8.83;;;3.70;;
19253;SDS011;9761;50.926;5.330;2022-10-01T12:23:31;8.57;;;3.73;;
19253;SDS011;9761;50.926;5.330;2022-10-01T12:26:11;12.00;;;3.47;;
19253;SDS011;9761;50.926;5.330;2022-10-01T12:28:45;9.87;;;2.90;;
19253;SDS011;9761;50.926;5.330;2022-10-01T12:31:26;9.80;;;3.30;;
19253;SDS011;9761;50.926;5.330;2022-10-01T12:34:06;10.70;;;3.33;;
19253;SDS011;9761;50.926;5.330;2022-10-01T12:36:41;14.70;;;3.17;;
19253;SDS011;9761;50.926;5.330;2022-10-01T12:39:26;8.93;;;3.27;;
19253;SDS011;9761;50.926;5.330;2022-10-01T12:42:20;14.80;;;3.30;;
19253;SDS011;9761;50.926;5.330;2022-10-01T12:45:00;7.57;;;2.57;;
19253;SDS011;9761;50.926;5.330;2022-10-01T12:47:42;10.87;;;3.03;;
19253;SDS011;9761;50.926;5.330;2022-10-01T12:50:20;8.50;;;2.60;;
19253;SDS011;9761;50.926;5.330;2022-10-01T12:52:57;8.67;;;2.30;;
19253;SDS011;9761;50.926;5.330;2022-10-01T12:55:50;8.27;;;2.90;;
19253;SDS011;9761;50.926;5.330;2022-10-01T12:58:28;10.07;;;2.63;;
19253;SDS011;9761;50.926;5.330;2022-10-01T13:01:24;10.17;;;2.33;;
19253;SDS011;9761;50.926;5.330;2022-10-01T13:04:08;11.80;;;2.40;;
19253;SDS011;9761;50.926;5.330;2022-10-01T13:07:03;6.83;;;2.90;;
19253;SDS011;9761;50.926;5.330;2022-10-01T13:09:51;8.13;;;2.40;;
19253;SDS011;9761;50.926;5.330;2022-10-01T13:12:37;4.63;;;2.00;;
19253;SDS011;9761;50.926;5.330;2022-10-01T13:15:21;6.37;;;2.47;;
19253;SDS011;9761;50.926;5.330;2022-10-01T13:17:54;7.00;;;2.50;;
19253;SDS011;9761;50.926;5.330;2022-10-01T13:20:34;8.50;;;2.50;;
19253;SDS011;9761;50.926;5.330;2022-10-01T13:23:10;7.97;;;2.20;;
19253;SDS011;9761;50.926;5.330;2022-10-01T13:25:44;5.73;;;2.17;;
19253;SDS011;9761;50.926;5.330;2022-10-01T13:28:24;5.90;;;1.93;;
19253;SDS011;9761;50.926;5.330;2022-10-01T13:31:09;8.73;;;2.40;;
19253;SDS011;9761;50.926;5.330;2022-10-01T13:33:39;5.43;;;1.90;;
19253;SDS011;9761;50.926;5.330;2022-10-01T13:36:10;7.53;;;2.20;;
19253;SDS011;9761;50.926;5.330;2022-10-01T13:38:39;8.83;;;2.10;;
19253;SDS011;9761;50.926;5.330;2022-10-01T13:41:16;6.43;;;2.33;;
19253;SDS011;9761;50.926;5.330;2022-10-01T13:43:52;7.37;;;2.20;;
19253;SDS011;9761;50.926;5.330;2022-10-01T13:46:23;9.80;;;2.17;;
19253;SDS011;9761;50.926;5.330;2022-10-01T13:48:55;6.47;;;2.13;;
19253;SDS011;9761;50.926;5.330;2022-10-01T13:51:36;9.13;;;2.47;;
19253;SDS011;9761;50.926;5.330;2022-10-01T13:54:20;8.27;;;2.40;;
19253;SDS011;9761;50.926;5.330;2022-10-01T13:57:05;8.37;;;2.47;;
19253;SDS011;9761;50.926;5.330;2022-10-01T13:59:35;6.20;;;2.50;;
19253;SDS011;9761;50.926;5.330;2022-10-01T14:04:53;7.77;;;2.87;;
19253;SDS011;9761;50.926;5.330;2022-10-01T14:07:37;6.87;;;2.37;;
19253;SDS011;9761;50.926;5.330;2022-10-01T14:10:05;9.70;;;2.07;;
19253;SDS011;9761;50.926;5.330;2022-10-01T14:12:40;12.03;;;2.70;;
19253;SDS011;9761;50.926;5.330;2022-10-01T14:15:29;5.90;;;2.07;;
19253;SDS011;9761;50.926;5.330;2022-10-01T14:18:22;10.13;;;2.40;;
19253;SDS011;9761;50.926;5.330;2022-10-01T14:20:53;8.30;;;2.20;;
19253;SDS011;9761;50.926;5.330;2022-10-01T14:23:34;9.30;;;2.27;;
19253;SDS011;9761;50.926;5.330;2022-10-01T14:26:11;5.10;;;2.23;;
19253;SDS011;9761;50.926;5.330;2022-10-01T14:28:51;6.23;;;2.27;;
19253;SDS011;9761;50.926;5.330;2022-10-01T14:31:29;5.37;;;1.77;;
19253;SDS011;9761;50.926;5.330;2022-10-01T14:34:12;6.43;;;2.27;;
19253;SDS011;9761;50.926;5.330;2022-10-01T14:37:04;6.43;;;1.80;;
19253;SDS011;9761;50.926;5.330;2022-10-01T14:39:38;9.43;;;1.90;;
19253;SDS011;9761;50.926;5.330;2022-10-01T14:42:09;9.83;;;2.13;;
19253;SDS011;9761;50.926;5.330;2022-10-01T14:44:42;6.20;;;2.10;;
19253;SDS011;9761;50.926;5.330;2022-10-01T14:47:13;7.17;;;1.97;;
19253;SDS011;9761;50.926;5.330;2022-10-01T14:49:45;5.23;;;2.00;;
19253;SDS011;9761;50.926;5.330;2022-10-01T14:52:20;5.53;;;1.87;;
19253;SDS011;9761;50.926;5.330;2022-10-01T14:54:55;7.23;;;2.10;;
19253;SDS011;9761;50.926;5.330;2022-10-01T14:57:29;6.43;;;1.80;;
19253;SDS011;9761;50.926;5.330;2022-10-01T15:00:00;8.70;;;2.20;;
19253;SDS011;9761;50.926;5.330;2022-10-01T15:02:33;6.47;;;2.00;;
19253;SDS011;9761;50.926;5.330;2022-10-01T15:05:16;7.93;;;1.90;;
19253;SDS011;9761;50.926;5.330;2022-10-01T15:07:48;4.00;;;1.63;;
19253;SDS011;9761;50.926;5.330;2022-10-01T15:10:18;4.93;;;1.93;;
19253;SDS011;9761;50.926;5.330;2022-10-01T15:12:51;6.90;;;2.10;;
19253;SDS011;9761;50.926;5.330;2022-10-01T15:15:23;3.50;;;1.63;;
19253;SDS011;9761;50.926;5.330;2022-10-01T15:17:55;4.57;;;1.90;;
19253;SDS011;9761;50.926;5.330;2022-10-01T15:20:22;8.23;;;1.63;;
19253;SDS011;9761;50.926;5.330;2022-10-01T15:22:49;6.10;;;2.13;;
19253;SDS011;9761;50.926;5.330;2022-10-01T15:25:21;6.30;;;1.80;;
19253;SDS011;9761;50.926;5.330;2022-10-01T15:27:51;10.63;;;2.60;;
19253;SDS011;9761;50.926;5.330;2022-10-01T15:30:22;6.83;;;2.43;;
19253;SDS011;9761;50.926;5.330;2022-10-01T15:32:52;7.80;;;2.03;;
19253;SDS011;9761;50.926;5.330;2022-10-01T15:35:20;5.00;;;2.13;;
19253;SDS011;9761;50.926;5.330;2022-10-01T15:37:48;9.63;;;2.53;;
19253;SDS011;9761;50.926;5.330;2022-10-01T15:40:24;7.77;;;2.27;;